Time;durP1;ratioP1;P1;durP2;ratioP2;P2;SDS_P1;SDS_P2;PMS_P1;PMS_P2;Temp;Humidity;BMP_temperature;BMP_pressure;BME280_temperature;BME280_humidity;BME280_pressure;Samples;Min_cycle;Max_cycle;Signal;HPM_P1;HPM_P2
2023/02/21 02:14:30;;;;;;;38.33;21.63;;;;;;;8.02;100.00;100884.06;5070749;28;20421;-78
2023/02/21 02:17:17;;;;;;;39.95;24.55;;;;;;;7.99;100.00;100895.34;5102596;27;20063;-77
2023/02/21 02:20:28;;;;;;;41.42;22.20;;;;;;;8.00;100.00;100890.97;5104310;28;20040;-82
2023/02/21 02:23:39;;;;;;;40.00;23.45;;;;;;;7.97;100.00;100880.53;5090416;28;20221;-78
2023/02/21 02:26:54;;;;;;;36.83;22.52;;;;;;;7.97;100.00;100899.66;5100784;28;20094;-82
2023/02/21 02:30:03;;;;;;;42.15;22.55;;;;;;;7.93;100.00;100900.50;5070565;28;20044;-77
2023/02/21 02:32:56;;;;;;;42.58;23.83;;;;;;;7.86;100.00;100899.59;5087729;28;20062;-80
2023/02/21 02:35:33;;;;;;;47.00;24.98;;;;;;;7.81;100.00;100892.59;5102355;28;20063;-77
2023/02/21 02:38:34;;;;;;;48.63;25.50;;;;;;;7.78;100.00;100893.44;5080899;28;20036;-81
2023/02/21 02:41:15;;;;;;;50.15;25.33;;;;;;;7.74;100.00;100892.56;5082612;28;20032;-78
2023/02/21 02:43:51;;;;;;;47.10;26.08;;;;;;;7.72;100.00;100894.28;5068472;28;20127;-77
2023/02/21 02:46:24;;;;;;;47.33;25.58;;;;;;;7.70;100.00;100890.78;5081528;28;20040;-76
2023/02/21 02:49:04;;;;;;;50.40;25.70;;;;;;;7.70;100.00;100900.34;5084452;28;20039;-76
2023/02/21 02:51:34;;;;;;;45.90;24.38;;;;;;;7.72;100.00;100890.81;5087372;28;20088;-77
2023/02/21 02:54:02;;;;;;;48.28;28.33;;;;;;;7.68;100.00;100891.63;5084283;28;20032;-75
2023/02/21 02:56:29;;;;;;;53.28;25.63;;;;;;;7.70;100.00;100902.97;5085894;28;20071;-78
2023/02/21 02:59:12;;;;;;;54.92;26.45;;;;;;;7.65;100.00;100902.06;5075014;28;20506;-80
2023/02/21 03:01:50;;;;;;;47.73;27.00;;;;;;;7.66;100.00;100899.44;5066526;28;20134;-78
2023/02/21 03:05:01;;;;;;;47.63;25.10;;;;;;;7.70;100.00;100903.81;5104784;28;20328;-77
2023/02/21 03:07:47;;;;;;;49.60;25.83;;;;;;;7.69;100.00;100902.09;5087670;28;20495;-79
2023/02/21 03:10:45;;;;;;;53.58;27.17;;;;;;;7.69;100.00;100896.88;5100819;28;20044;-77
2023/02/21 03:14:05;;;;;;;48.70;26.33;;;;;;;7.69;100.00;100891.69;5102137;28;20044;-76
2023/02/21 03:16:47;;;;;;;49.65;27.90;;;;;;;7.69;100.00;100890.78;5062764;28;20135;-78
2023/02/21 03:19:28;;;;;;;46.70;26.67;;;;;;;7.71;100.00;100892.53;5087989;28;20437;-76
2023/02/21 03:22:02;;;;;;;48.70;27.33;;;;;;;7.75;100.00;100896.03;5093446;28;20040;-77
2023/02/21 03:24:29;;;;;;;50.08;25.88;;;;;;;7.69;100.00;100877.75;5089044;28;20040;-80
2023/02/21 03:27:03;;;;;;;52.85;27.42;;;;;;;7.70;100.00;100880.38;5089626;28;20042;-78
2023/02/21 03:29:30;;;;;;;52.33;27.30;;;;;;;7.68;100.00;100874.28;5093463;28;20043;-76
2023/02/21 03:34:37;;;;;;;48.65;26.70;;;;;;;7.67;100.00;100885.56;5104394;28;20115;-77
2023/02/21 03:37:07;;;;;;;59.42;29.58;;;;;;;7.67;100.00;100885.56;5085851;28;20089;-77
2023/02/21 03:39:40;;;;;;;52.50;28.95;;;;;;;7.63;100.00;100873.38;5092641;28;20066;-78
2023/02/21 03:42:13;;;;;;;52.40;27.30;;;;;;;7.65;100.00;100873.38;5076014;28;20043;-77
2023/02/21 03:44:40;;;;;;;50.95;27.58;;;;;;;7.68;100.00;100882.09;5091271;27;20045;-76
2023/02/21 03:47:06;;;;;;;53.22;27.55;;;;;;;7.62;100.00;100877.72;5074687;28;20503;-77
2023/02/21 03:49:33;;;;;;;57.00;27.98;;;;;;;7.64;100.00;100874.25;5087785;28;20040;-79
2023/02/21 03:51:59;;;;;;;52.40;27.60;;;;;;;7.61;100.00;100881.19;5094277;28;20046;-76
2023/02/21 03:54:26;;;;;;;50.95;26.52;;;;;;;7.69;100.00;100880.34;5081672;28;20069;-78
2023/02/21 03:56:52;;;;;;;51.05;26.33;;;;;;;7.68;100.00;100881.22;5084422;28;20528;-79
2023/02/21 03:59:18;;;;;;;51.80;26.45;;;;;;;7.65;100.00;100879.47;5073966;28;20044;-80
2023/02/21 04:01:51;;;;;;;52.22;26.20;;;;;;;7.65;100.00;100876.84;5103377;27;20054;-78
2023/02/21 04:04:18;;;;;;;53.47;27.23;;;;;;;7.69;100.00;100869.94;5082342;28;20094;-77
2023/02/21 04:06:44;;;;;;;52.10;26.60;;;;;;;7.69;100.00;100869.94;5084883;28;20131;-77
2023/02/21 04:09:11;;;;;;;53.20;27.02;;;;;;;7.70;100.00;100869.94;5083691;28;20044;-78
2023/02/21 04:11:37;;;;;;;56.85;27.70;;;;;;;7.72;100.00;100875.19;5081318;28;20159;-79
2023/02/21 04:14:04;;;;;;;57.83;27.42;;;;;;;7.68;100.00;100873.41;5104308;27;20044;-78
2023/02/21 04:16:30;;;;;;;51.90;28.13;;;;;;;7.66;100.00;100862.13;5067580;28;20040;-78
2023/02/21 04:18:57;;;;;;;57.10;28.83;;;;;;;7.65;100.00;100855.16;5102188;28;20051;-78
2023/02/21 04:21:23;;;;;;;54.63;28.08;;;;;;;7.71;100.00;100856.06;5085507;28;20703;-78
2023/02/21 04:23:50;;;;;;;55.13;27.95;;;;;;;7.72;100.00;100850.00;5086529;28;20059;-78
2023/02/21 04:26:17;;;;;;;55.42;28.63;;;;;;;7.76;100.00;100850.88;5078138;28;20390;-80
2023/02/21 04:28:43;;;;;;;54.08;28.00;;;;;;;7.75;100.00;100847.38;5089616;28;20046;-77
2023/02/21 04:31:10;;;;;;;52.22;26.95;;;;;;;7.72;100.00;100844.78;5091253;28;20043;-77
2023/02/21 04:33:36;;;;;;;48.92;27.42;;;;;;;7.70;100.00;100851.69;5090992;28;20051;-75
2023/02/21 04:36:03;;;;;;;55.90;28.13;;;;;;;7.71;100.00;100861.28;5075680;28;20052;-77
2023/02/21 04:38:29;;;;;;;48.63;27.45;;;;;;;7.71;100.00;100856.06;5084744;28;20550;-76
2023/02/21 04:40:56;;;;;;;55.20;29.15;;;;;;;7.68;100.00;100866.47;5102800;28;20702;-82
2023/02/21 04:43:23;;;;;;;55.63;27.15;;;;;;;7.67;100.00;100866.47;5089563;28;20108;-78
2023/02/21 04:45:49;;;;;;;51.17;28.27;;;;;;;7.73;100.00;100864.78;5088738;28;20051;-77
2023/02/21 04:48:16;;;;;;;55.05;29.00;;;;;;;7.70;100.00;100856.91;5085028;28;20714;-78
2023/02/21 04:50:43;;;;;;;49.42;26.48;;;;;;;7.71;100.00;100857.81;5084338;28;20051;-76
2023/02/21 04:53:09;;;;;;;53.63;26.52;;;;;;;7.68;100.00;100845.63;5092921;28;20039;-77
2023/02/21 04:55:36;;;;;;;53.95;26.67;;;;;;;7.70;100.00;100843.03;5090226;28;20055;-76
2023/02/21 04:58:02;;;;;;;51.65;27.20;;;;;;;7.68;100.00;100837.81;5093629;28;20036;-82
2023/02/21 05:00:29;;;;;;;48.42;27.20;;;;;;;7.68;100.00;100843.03;5087659;28;20043;-75
2023/02/21 05:02:55;;;;;;;49.65;25.23;;;;;;;7.69;100.00;100836.97;5097939;27;20038;-75
2023/02/21 05:05:22;;;;;;;52.78;25.90;;;;;;;7.73;100.00;100836.09;5100486;28;20047;-77
2023/02/21 05:07:48;;;;;;;48.70;26.13;;;;;;;7.73;100.00;100840.44;5088293;28;20047;-77
2023/02/21 05:10:17;;;;;;;46.95;24.58;;;;;;;7.77;100.00;100834.41;5084287;28;20047;-78
2023/02/21 05:12:44;;;;;;;47.50;25.60;;;;;;;7.76;100.00;100832.66;5083493;28;20097;-77
2023/02/21 05:15:13;;;;;;;56.67;27.83;;;;;;;7.75;100.00;100831.75;5096497;28;20032;-81
2023/02/21 05:17:39;;;;;;;47.88;24.55;;;;;;;7.79;100.00;100837.88;5080812;28;20040;-77
2023/02/21 05:20:10;;;;;;;57.25;24.73;;;;;;;7.79;100.00;100835.25;5073293;28;20070;-77
2023/02/21 05:22:41;;;;;;;46.72;25.63;;;;;;;7.80;100.00;100847.44;5061956;28;20413;-79
2023/02/21 05:25:16;;;;;;;52.60;25.10;;;;;;;7.79;100.00;100845.69;5065062;28;20042;-76
2023/02/21 05:27:42;;;;;;;45.28;25.75;;;;;;;7.82;100.00;100847.44;5077721;28;20047;-78
2023/02/21 05:30:10;;;;;;;45.47;23.02;;;;;;;7.78;100.00;100859.56;5097310;27;20044;-80
2023/02/21 05:32:36;;;;;;;45.50;24.30;;;;;;;7.82;100.00;100848.28;5074499;28;20050;-76
2023/02/21 05:35:04;;;;;;;45.95;23.73;;;;;;;7.83;100.00;100852.66;5096662;28;20071;-79
2023/02/21 05:37:31;;;;;;;42.65;22.92;;;;;;;7.85;100.00;100848.31;5086214;28;20043;-81
2023/02/21 05:39:57;;;;;;;42.25;23.80;;;;;;;7.84;100.00;100854.41;5114421;28;20084;-82
2023/02/21 05:42:24;;;;;;;47.03;25.92;;;;;;;7.84;100.00;100851.78;5089335;28;20031;-79
2023/02/21 05:44:50;;;;;;;43.60;22.55;;;;;;;7.85;100.00;100856.16;5083578;28;20120;-77
2023/02/21 05:47:17;;;;;;;46.13;22.85;;;;;;;7.84;100.00;100858.75;5076916;28;20390;-78
2023/02/21 05:49:44;;;;;;;43.63;23.50;;;;;;;7.81;100.00;100856.09;5086974;28;20039;-81
2023/02/21 05:52:16;;;;;;;48.13;23.67;;;;;;;7.84;100.00;100863.97;5084271;28;20378;-76
2023/02/21 05:54:44;;;;;;;42.22;25.20;;;;;;;7.86;100.00;100857.91;5091065;28;20040;-79
2023/02/21 05:57:11;;;;;;;48.25;24.55;;;;;;;7.84;100.00;100859.59;5075233;28;20048;-79
2023/02/21 05:59:38;;;;;;;45.30;22.65;;;;;;;7.88;100.00;100860.50;5078648;28;20038;-74
2023/02/21 06:02:04;;;;;;;42.47;23.00;;;;;;;7.87;100.00;100861.38;5062859;28;20072;-81
2023/02/21 06:04:31;;;;;;;40.58;22.60;;;;;;;7.87;100.00;100874.41;5082015;28;20043;-77
2023/02/21 06:06:57;;;;;;;45.00;23.80;;;;;;;7.84;100.00;100863.97;5079303;28;20063;-77
2023/02/21 06:09:24;;;;;;;44.28;23.73;;;;;;;7.81;100.00;100864.81;5077806;28;20492;-78
2023/02/21 06:11:50;;;;;;;43.58;23.63;;;;;;;7.80;100.00;100864.81;5097345;28;20045;-82
2023/02/21 06:14:20;;;;;;;50.85;23.73;;;;;;;7.78;100.00;100867.38;5100843;28;20141;-78
2023/02/21 06:16:47;;;;;;;42.85;23.02;;;;;;;7.79;100.00;100863.91;5103240;28;20040;-78
2023/02/21 06:19:15;;;;;;;46.10;25.25;;;;;;;7.76;100.00;100866.53;5087838;28;20054;-78
2023/02/21 06:21:42;;;;;;;44.70;23.15;;;;;;;7.76;100.00;100866.53;5086800;28;20075;-78
2023/02/21 06:24:11;;;;;;;48.08;25.60;;;;;;;7.77;100.00;100870.88;5079780;28;20351;-80
2023/02/21 06:26:38;;;;;;;45.33;23.88;;;;;;;7.77;100.00;100870.88;5090654;28;20047;-77
2023/02/21 06:29:05;;;;;;;43.28;24.25;;;;;;;7.76;100.00;100862.16;5082112;28;20481;-79
2023/02/21 06:31:32;;;;;;;44.20;25.17;;;;;;;7.82;100.00;100870.88;5087387;28;20032;-77
2023/02/21 06:33:59;;;;;;;43.22;22.73;;;;;;;7.80;100.00;100870.03;5082638;28;20055;-76
2023/02/21 06:36:28;;;;;;;46.97;24.25;;;;;;;7.75;100.00;100875.19;5083437;28;20043;-79
2023/02/21 06:38:57;;;;;;;49.03;26.60;;;;;;;7.75;100.00;100883.00;5087960;28;20143;-77
2023/02/21 06:41:29;;;;;;;44.70;24.95;;;;;;;7.79;100.00;100879.56;5085769;28;20056;-80
2023/02/21 06:43:58;;;;;;;46.00;24.90;;;;;;;7.82;100.00;100879.56;5070950;28;20043;-76
2023/02/21 06:46:29;;;;;;;43.95;25.38;;;;;;;7.85;100.00;100871.78;5079848;28;20445;-79
2023/02/21 06:48:55;;;;;;;42.25;23.70;;;;;;;7.92;100.00;100878.75;5067067;28;20063;-79
2023/02/21 06:51:28;;;;;;;45.13;23.83;;;;;;;7.95;100.00;100889.22;5082312;28;20046;-78
2023/02/21 06:53:55;;;;;;;41.10;22.52;;;;;;;7.94;100.00;100889.22;5087057;28;20783;-78
2023/02/21 06:56:22;;;;;;;45.00;21.58;;;;;;;7.96;100.00;100892.69;5079628;28;20040;-81
2023/02/21 06:58:48;;;;;;;39.70;23.05;;;;;;;7.99;100.00;100886.63;5096429;28;20040;-79
2023/02/21 07:01:15;;;;;;;37.50;21.13;;;;;;;8.00;100.00;100896.19;5085093;28;20047;-79
2023/02/21 07:03:43;;;;;;;42.10;21.90;;;;;;;8.01;100.00;100898.81;5085272;28;20490;-79
2023/02/21 07:06:09;;;;;;;40.92;23.52;;;;;;;8.04;100.00;100893.59;5086893;28;20040;-78
2023/02/21 07:08:36;;;;;;;37.35;20.42;;;;;;;8.06;100.00;100901.44;5101506;28;20032;-77
2023/02/21 07:11:04;;;;;;;40.42;22.90;;;;;;;8.09;100.00;100907.53;5095366;28;20525;-76
2023/02/21 07:13:31;;;;;;;42.13;21.92;;;;;;;8.14;100.00;100914.53;5082603;28;20115;-79
2023/02/21 07:15:57;;;;;;;43.30;22.70;;;;;;;8.14;100.00;100906.72;5087207;28;20047;-78
2023/02/21 07:18:24;;;;;;;42.78;23.05;;;;;;;8.10;100.00;100921.47;5082219;28;20048;-83
2023/02/21 07:20:50;;;;;;;38.35;21.10;;;;;;;8.19;100.00;100923.25;5066399;28;20048;-80
2023/02/21 07:23:17;;;;;;;40.75;21.77;;;;;;;8.17;100.00;100924.97;5083948;28;20040;-78
2023/02/21 07:25:47;;;;;;;40.03;21.77;;;;;;;8.15;100.00;100926.69;5092460;28;20121;-79
2023/02/21 07:28:14;;;;;;;42.33;24.00;;;;;;;8.10;100.00;100924.06;5093405;28;20131;-76
2023/02/21 07:30:42;;;;;;;42.28;22.95;;;;;;;8.08;100.00;100933.59;5088617;28;20044;-79
2023/02/21 07:33:08;;;;;;;41.83;22.02;;;;;;;8.08;100.00;100936.22;5071390;28;20071;-77
2023/02/21 07:35:35;;;;;;;39.97;21.35;;;;;;;8.08;100.00;100938.81;5071239;28;20055;-77
2023/02/21 07:38:02;;;;;;;41.83;23.40;;;;;;;8.11;100.00;100941.47;5071599;28;20047;-79
2023/02/21 07:40:28;;;;;;;40.58;22.33;;;;;;;8.09;100.00;100943.16;5065326;28;20437;-78
2023/02/21 07:42:56;;;;;;;42.80;21.70;;;;;;;8.13;100.00;100949.28;5073398;28;20050;-78
2023/02/21 07:45:22;;;;;;;43.25;23.23;;;;;;;8.11;100.00;100954.50;5081160;28;20047;-79
2023/02/21 07:47:52;;;;;;;39.33;22.48;;;;;;;8.13;100.00;100946.69;5102203;28;20059;-77
2023/02/21 07:50:18;;;;;;;37.58;21.90;;;;;;;8.10;100.00;100950.13;5072896;27;20105;-78
2023/02/21 07:52:46;;;;;;;42.17;23.33;;;;;;;8.10;100.00;100953.59;5089715;28;20035;-78
2023/02/21 07:55:12;;;;;;;41.85;22.65;;;;;;;8.09;100.00;100958.81;5094869;28;20047;-80
2023/02/21 07:57:39;;;;;;;43.42;23.65;;;;;;;8.13;100.00;100952.75;5095075;28;20046;-79
2023/02/21 08:00:06;;;;;;;47.92;25.65;;;;;;;8.15;100.00;100958.84;5089375;28;20063;-79
2023/02/21 08:02:33;;;;;;;43.38;22.63;;;;;;;8.14;100.00;100961.47;5080171;27;20043;-78
2023/02/21 08:04:59;;;;;;;42.55;23.42;;;;;;;8.20;100.00;100961.47;5070452;28;20039;-79
2023/02/21 08:07:26;;;;;;;43.70;23.70;;;;;;;8.17;100.00;100966.69;5097274;27;20052;-79
2023/02/21 08:09:52;;;;;;;42.70;22.17;;;;;;;8.16;100.00;100971.03;5103816;27;20047;-80
2023/02/21 08:12:20;;;;;;;45.53;23.45;;;;;;;8.15;100.00;100973.63;5071184;28;21269;-77
2023/02/21 08:14:46;;;;;;;40.20;23.70;;;;;;;8.15;100.00;100979.72;5090900;28;20104;-80
2023/02/21 08:17:13;;;;;;;47.50;24.20;;;;;;;8.23;100.00;100988.47;5110236;28;20040;-78
2023/02/21 08:19:40;;;;;;;45.55;23.63;;;;;;;8.22;100.00;100976.28;5097687;28;20070;-80
2023/02/21 08:22:06;;;;;;;42.17;23.75;;;;;;;8.22;100.00;100978.03;5089675;28;20044;-80
2023/02/21 08:24:34;;;;;;;44.50;22.65;;;;;;;8.24;100.00;100979.78;5091213;28;20068;-77
2023/02/21 08:27:01;;;;;;;41.00;22.95;;;;;;;8.29;100.00;100985.00;5085701;28;20745;-79
2023/02/21 08:29:27;;;;;;;41.22;22.52;;;;;;;8.31;100.00;100979.81;5104504;28;20039;-78
2023/02/21 08:31:54;;;;;;;46.80;24.48;;;;;;;8.39;100.00;100978.13;5063829;28;20058;-77
2023/02/21 08:34:21;;;;;;;51.83;27.63;;;;;;;8.31;100.00;100987.66;5091061;28;20056;-78
2023/02/21 08:36:47;;;;;;;43.08;24.52;;;;;;;8.27;100.00;100992.81;5089078;28;20369;-78
2023/02/21 08:39:14;;;;;;;40.97;22.92;;;;;;;8.28;100.00;100994.56;5085906;28;20054;-79
2023/02/21 08:41:45;;;;;;;46.03;24.30;;;;;;;8.35;100.00;100986.78;5081681;28;20040;-84
2023/02/21 08:44:15;;;;;;;45.28;23.33;;;;;;;8.36;100.00;100988.53;5087708;28;20090;-76
2023/02/21 08:46:47;;;;;;;40.55;23.50;;;;;;;8.37;100.00;100990.25;5073528;28;20088;-77
2023/02/21 08:49:16;;;;;;;43.90;23.42;;;;;;;8.46;100.00;100995.59;5072078;28;20076;-78
2023/02/21 08:51:43;;;;;;;39.03;21.92;;;;;;;8.48;100.00;100993.84;5069998;28;20401;-78
2023/02/21 08:54:12;;;;;;;42.58;23.40;;;;;;;8.51;100.00;101000.81;5085690;28;20652;-79
2023/02/21 08:56:38;;;;;;;40.50;21.58;;;;;;;8.51;100.00;100993.00;5067516;28;20136;-80
2023/02/21 08:59:05;;;;;;;42.28;22.40;;;;;;;8.50;100.00;100984.31;5087644;28;20051;-78
2023/02/21 09:01:37;;;;;;;37.67;22.20;;;;;;;8.52;100.00;100990.38;5079810;28;20067;-80
2023/02/21 09:04:04;;;;;;;40.67;21.45;;;;;;;8.59;100.00;100993.88;5082310;28;20103;-82
2023/02/21 09:06:33;;;;;;;38.60;21.30;;;;;;;8.61;100.00;100994.78;5082995;28;20044;-81
2023/02/21 09:09:00;;;;;;;35.08;20.48;;;;;;;8.63;100.00;100989.56;5073300;28;20040;-78
2023/02/21 09:11:26;;;;;;;41.15;21.73;;;;;;;8.58;100.00;100998.25;5091117;28;20131;-79
2023/02/21 09:13:53;;;;;;;34.55;19.70;;;;;;;8.61;100.00;100995.63;5085109;28;20036;-80
2023/02/21 09:16:20;;;;;;;38.28;22.00;;;;;;;8.61;100.00;100995.63;5088561;28;20058;-78
2023/02/21 09:18:57;;;;;;;37.30;20.40;;;;;;;8.71;100.00;100983.50;5086204;28;20093;-80
2023/02/21 09:21:24;;;;;;;32.40;19.42;;;;;;;8.78;100.00;100985.25;5092950;28;20048;-76
2023/02/21 09:23:58;;;;;;;38.72;21.38;;;;;;;8.82;100.00;100986.16;5096379;28;20036;-79
2023/02/21 09:26:30;;;;;;;36.33;20.35;;;;;;;8.86;100.00;100982.69;5091274;28;20051;-78
2023/02/21 09:28:58;;;;;;;39.58;21.65;;;;;;;8.88;100.00;100990.56;5098766;28;20047;-80
2023/02/21 09:31:24;;;;;;;37.80;20.17;;;;;;;8.88;100.00;100983.56;5107882;28;20035;-77
2023/02/21 09:33:51;;;;;;;43.40;22.27;;;;;;;8.90;100.00;100988.78;5095906;28;20055;-77
2023/02/21 09:36:22;;;;;;;42.38;20.20;;;;;;;8.96;100.00;100975.78;5110802;27;20643;-77
2023/02/21 09:38:52;;;;;;;39.83;20.05;;;;;;;8.99;100.00;100986.22;5101858;28;20755;-78
2023/02/21 09:41:19;;;;;;;37.65;20.73;;;;;;;9.10;100.00;100983.66;5102327;28;20044;-78
2023/02/21 09:43:50;;;;;;;38.38;19.98;;;;;;;9.18;100.00;100978.44;5075366;28;20461;-75
2023/02/21 09:46:24;;;;;;;42.88;23.70;;;;;;;9.15;100.00;100986.25;5090500;28;20048;-76
2023/02/21 09:48:50;;;;;;;;;;;;;;;9.22;100.00;100985.41;5100929;28;20419;-76
2023/02/21 09:51:18;;;;;;;39.78;22.77;;;;;;;9.26;100.00;100987.16;5087063;27;19923;-79
2023/02/21 09:53:48;;;;;;;38.85;22.13;;;;;;;9.35;100.00;100989.78;5089304;28;20035;-77
2023/02/21 09:56:38;;;;;;;38.72;20.83;;;;;;;9.42;100.00;100993.28;5090613;28;20115;-79
2023/02/21 09:59:11;;;;;;;40.33;21.63;;;;;;;9.47;100.00;100996.75;5073296;28;20085;-75
2023/02/21 10:02:17;;;;;;;39.67;21.40;;;;;;;9.55;100.00;100994.16;5089813;28;20626;-77
2023/02/21 10:05:29;;;;;;;41.15;20.73;;;;;;;9.58;100.00;100992.44;5099248;28;20111;-80
2023/02/21 10:08:29;;;;;;;33.25;19.00;;;;;;;9.58;100.00;100997.66;5083251;28;20055;-76
2023/02/21 10:11:13;;;;;;;39.08;21.15;;;;;;;9.52;100.00;100995.03;5074589;28;20139;-78
2023/02/21 10:13:53;;;;;;;41.97;21.30;;;;;;;9.46;100.00;100996.78;5066001;28;20055;-76
2023/02/21 10:17:03;;;;;;;34.65;19.23;;;;;;;9.35;100.00;100994.16;5090836;27;20055;-78
2023/02/21 10:19:43;;;;;;;36.25;19.65;;;;;;;9.34;100.00;101000.25;5090187;28;20044;-78
2023/02/21 10:22:34;;;;;;;35.45;19.77;;;;;;;9.25;100.00;100998.47;5087412;28;20040;-79
2023/02/21 10:25:29;;;;;;;37.30;20.13;;;;;;;9.20;100.00;100997.59;5088573;28;20048;-80
2023/02/21 10:28:00;;;;;;;34.60;19.77;;;;;;;9.29;100.00;100999.34;5082579;28;20647;-78
2023/02/21 10:30:39;;;;;;;37.90;20.88;;;;;;;9.35;100.00;101000.22;5085975;28;20066;-76
2023/02/21 10:33:07;;;;;;;36.63;20.23;;;;;;;9.29;100.00;100999.34;5088934;28;20058;-78
2023/02/21 10:35:37;;;;;;;33.97;19.80;;;;;;;9.20;100.00;101005.44;5069229;28;20052;-77
2023/02/21 10:38:10;;;;;;;38.60;19.17;;;;;;;9.41;100.00;100988.91;5083795;28;20032;-77
2023/02/21 10:41:06;;;;;;;37.60;20.17;;;;;;;9.48;100.00;101006.34;5087194;28;20031;-77
2023/02/21 10:43:41;;;;;;;33.45;17.77;;;;;;;9.45;100.00;100998.50;5083414;28;20123;-77
2023/02/21 10:46:20;;;;;;;38.20;19.67;;;;;;;9.37;100.00;101013.28;5086985;28;20134;-78
2023/02/21 10:48:52;;;;;;;33.63;19.50;;;;;;;9.44;100.00;101002.00;5081737;28;20052;-78
2023/02/21 10:51:32;;;;;;;34.03;17.42;;;;;;;9.53;100.00;101006.34;5089724;28;20043;-77
2023/02/21 10:54:24;;;;;;;35.50;18.65;;;;;;;9.53;100.00;100996.78;5087272;28;20070;-78
2023/02/21 10:56:53;;;;;;;30.35;18.45;;;;;;;9.47;100.00;101016.81;5088473;28;20044;-78
2023/02/21 10:59:29;;;;;;;30.63;17.88;;;;;;;9.41;100.00;101007.19;5088975;28;20052;-77
2023/02/21 11:01:57;;;;;;;33.08;18.48;;;;;;;9.38;100.00;101002.84;5087158;28;20040;-77
2023/02/21 11:04:30;;;;;;;32.60;19.17;;;;;;;9.33;100.00;101007.19;5086738;28;20067;-77
2023/02/21 11:07:07;;;;;;;34.53;18.92;;;;;;;9.35;100.00;101008.06;5080708;28;20421;-79
2023/02/21 11:09:43;;;;;;;32.47;18.30;;;;;;;9.30;100.00;101012.41;5087780;28;20115;-79
2023/02/21 11:12:28;;;;;;;31.33;18.35;;;;;;;9.24;100.00;101017.63;5088154;28;20160;-77
2023/02/21 11:14:58;;;;;;;33.00;17.60;;;;;;;9.31;100.00;101022.00;5072777;28;20054;-77
2023/02/21 11:17:28;;;;;;;34.35;16.90;;;;;;;9.30;100.00;101017.63;5090880;28;20048;-77
2023/02/21 11:20:17;;;;;;;32.08;17.42;;;;;;;9.38;100.00;101017.66;5084583;28;20097;-76
2023/02/21 11:22:48;;;;;;;30.83;16.10;;;;;;;9.42;100.00;101022.00;5106967;28;20138;-78
2023/02/21 11:25:29;;;;;;;28.73;16.17;;;;;;;9.49;100.00;101022.91;5088447;28;20684;-76
2023/02/21 11:28:11;;;;;;;26.90;15.73;;;;;;;9.63;100.00;101017.69;5108217;28;20039;-78
2023/02/21 11:31:01;;;;;;;31.88;16.90;;;;;;;9.52;100.00;101030.75;5105257;28;20055;-76
2023/02/21 11:33:29;;;;;;;30.95;17.65;;;;;;;9.40;100.00;101024.63;5103079;28;20046;-78
2023/02/21 11:36:20;;;;;;;31.00;16.02;;;;;;;9.41;100.00;101031.59;5093128;28;20040;-79
2023/02/21 11:39:15;;;;;;;29.90;16.15;;;;;;;9.35;100.00;101022.88;5104292;28;20040;-83
2023/02/21 11:41:53;;;;;;;29.67;17.48;;;;;;;9.44;100.00;101015.06;5108309;28;20039;-78
2023/02/21 11:44:36;;;;;;;27.42;16.67;;;;;;;9.64;100.00;101017.69;5092573;28;20036;-79
2023/02/21 11:47:22;;;;;;;31.17;16.48;;;;;;;9.80;100.00;101021.16;5096001;28;20093;-80
2023/02/21 11:50:15;;;;;;;23.00;14.77;;;;;;;9.90;100.00;101006.38;5100041;28;20036;-78
2023/02/21 11:53:15;;;;;;;30.85;16.00;;;;;;;10.12;100.00;101017.69;5108972;27;20397;-80
2023/02/21 11:56:03;;;;;;;26.70;15.75;;;;;;;10.15;100.00;101014.19;5095978;28;20082;-77
2023/02/21 11:58:46;;;;;;;29.77;16.27;;;;;;;10.33;100.00;101015.91;5111631;27;20036;-77
2023/02/21 12:01:24;;;;;;;23.30;13.10;;;;;;;10.59;100.00;100998.41;5092827;28;20047;-81
2023/02/21 12:04:18;;;;;;;27.45;15.70;;;;;;;10.51;100.00;101005.41;5110123;28;20044;-79
2023/02/21 12:07:04;;;;;;;22.40;13.35;;;;;;;10.76;100.00;101000.94;5076642;28;20050;-76
2023/02/21 12:09:52;;;;;;;18.95;13.15;;;;;;;10.98;100.00;101000.88;5072119;28;20135;-77
2023/02/21 12:12:43;;;;;;;20.98;13.20;;;;;;;11.08;100.00;101006.91;5098856;28;20042;-81
2023/02/21 12:15:25;;;;;;;22.05;13.20;;;;;;;10.82;100.00;101007.03;5086752;28;20036;-76
2023/02/21 12:18:42;;;;;;;20.48;13.10;;;;;;;10.69;100.00;100996.63;5085584;28;20040;-77
2023/02/21 12:21:41;;;;;;;27.02;13.75;;;;;;;10.79;100.00;100997.44;5101499;28;20108;-79
2023/02/21 12:24:27;;;;;;;22.48;12.23;;;;;;;10.83;100.00;100998.31;5091851;28;20134;-79
2023/02/21 12:27:11;;;;;;;21.05;12.18;;;;;;;10.94;100.00;100991.28;5100817;28;20036;-77
2023/02/21 12:30:25;;;;;;;18.38;12.32;;;;;;;11.38;100.00;100981.41;5073553;28;20134;-76
2023/02/21 12:33:32;;;;;;;19.50;11.05;;;;;;;11.71;100.00;100990.78;5084652;28;20088;-78
2023/02/21 12:36:16;;;;;;;21.65;12.07;;;;;;;12.04;99.68;100987.88;5090769;28;20517;-78
2023/02/21 12:39:10;;;;;;;16.60;12.40;;;;;;;11.99;97.49;100987.91;5102359;28;20073;-83
2023/02/21 12:42:02;;;;;;;19.48;11.75;;;;;;;11.77;98.98;100991.59;5113699;27;20540;-75
2023/02/21 12:45:23;;;;;;;15.70;11.32;;;;;;;11.79;99.47;100987.22;5107001;28;20481;-78
2023/02/21 12:48:10;;;;;;;13.45;9.63;;;;;;;12.08;98.09;100986.97;5072235;28;20044;-81
2023/02/21 12:50:42;;;;;;;15.18;10.20;;;;;;;12.31;96.10;100973.63;5080616;28;20052;-77
2023/02/21 12:53:19;;;;;;;18.38;10.90;;;;;;;12.01;96.21;100980.06;5087400;28;20493;-77
2023/02/21 12:56:14;;;;;;;18.20;11.07;;;;;;;12.04;96.42;100970.38;5097801;28;20535;-79
2023/02/21 12:58:54;;;;;;;16.80;10.35;;;;;;;12.16;95.77;100984.28;5092256;28;20063;-80
2023/02/21 13:01:35;;;;;;;16.13;11.30;;;;;;;12.13;95.80;100982.56;5078444;28;20104;-76
2023/02/21 13:04:28;;;;;;;19.80;11.55;;;;;;;11.69;96.66;100982.06;5065935;28;20039;-78
2023/02/21 13:07:06;;;;;;;16.92;10.43;;;;;;;11.32;99.62;100984.94;5080853;28;20054;-76
2023/02/21 13:09:53;;;;;;;19.40;11.65;;;;;;;11.22;100.00;100986.78;5088983;28;20032;-81
2023/02/21 13:12:33;;;;;;;15.82;10.38;;;;;;;11.24;100.00;100984.13;5095552;28;20579;-78
2023/02/21 13:15:28;;;;;;;19.33;11.10;;;;;;;11.24;100.00;100981.50;5103156;27;20047;-77
2023/02/21 13:18:17;;;;;;;16.17;10.43;;;;;;;11.45;100.00;100987.50;5102235;27;20101;-79
2023/02/21 13:20:54;;;;;;;18.83;11.15;;;;;;;11.76;98.19;100988.13;5100013;28;20052;-81
2023/02/21 13:27:04;;;;;;;16.48;10.82;;;;;;;11.41;99.23;100986.63;5101977;27;20185;-76
2023/02/21 13:29:34;;;;;;;18.60;11.82;;;;;;;11.17;100.00;100982.41;5107321;27;20047;-78
2023/02/21 13:32:15;;;;;;;18.58;11.38;;;;;;;11.01;100.00;100979.03;5087321;28;20127;-77
2023/02/21 13:34:56;;;;;;;21.35;12.02;;;;;;;10.89;100.00;100980.81;5084579;28;20111;-79
2023/02/21 13:37:27;;;;;;;18.85;12.13;;;;;;;10.80;100.00;100974.78;5091452;28;20039;-77
2023/02/21 13:40:24;;;;;;;20.00;12.00;;;;;;;10.73;100.00;100974.78;5086302;28;20036;-78
2023/02/21 13:43:11;;;;;;;19.90;11.23;;;;;;;10.78;100.00;100971.28;5078285;28;20062;-78
2023/02/21 13:45:38;;;;;;;17.75;11.45;;;;;;;10.81;100.00;100972.13;5080949;28;20574;-76
2023/02/21 13:48:07;;;;;;;20.13;12.45;;;;;;;10.90;100.00;100974.72;5100896;27;20035;-78
2023/02/21 13:50:33;;;;;;;19.08;12.68;;;;;;;10.87;100.00;100972.13;5103186;27;20046;-75
2023/02/21 13:53:12;;;;;;;19.17;12.90;;;;;;;10.78;100.00;100960.81;5111388;27;20035;-75
2023/02/21 13:55:39;;;;;;;21.58;12.80;;;;;;;10.73;100.00;100973.94;5082928;28;20048;-78
2023/02/21 13:58:06;;;;;;;21.58;12.32;;;;;;;10.78;100.00;100966.03;5087827;28;20043;-80
2023/02/21 14:00:35;;;;;;;25.13;13.00;;;;;;;10.75;100.00;100969.53;5070816;28;20066;-80
2023/02/21 14:03:27;;;;;;;23.65;13.18;;;;;;;10.66;100.00;100966.97;5098095;28;20044;-76